• Join FlightAware (Why Join?)
  • Login
  • US Flag 
03:26AM EDT


 

Airport Tracker/Info


-or-


 

Live Flight TrackerFlight Track Log ✈ EJA312 ✈ 18-Oct-2013 ✈ KMRY - KAPA

Flight Track Log - Related Links

Times and Time Zones

All times are in EDT time to prevent confusion due to time zone crossing. See the EJA312 flight status page for this flight to view local times or setup timezone preferences in your user account.

Time Position Orientation Groundspeed Altitude Reporting Facility
EDT Latitude Longitude Course Direction KTS MPH feet Rate Location/Type
06:39PM 36.6753 -121.8847 359° North 248 285 45,000  Level Oakland Center
06:40PM 36.6833 -121.7833 84° East 258 297 7,300 -17,580 Descending Northern Cal TRACON
06:41PM 36.6500 -121.7000 116° Southeast 293 337 7,900 2,400 Climbing Northern Cal TRACON
06:42PM 36.6847 -121.6011 66° East 284 327 12,100 3,360 Climbing Oakland Center
06:43PM 36.6886 -121.4950 87° East 301 346 14,600 2,520 Climbing Oakland Center
06:44PM 36.7846 -121.0622 69° East  Level Estimated
06:44PM 36.6942 -121.3644 87° East 312 359 17,300  Level Oakland Center
06:45PM 36.6975 -121.2528 88° East 319 367 19,000 1,380 Climbing Oakland Center
06:46PM 36.7022 -121.1308 87° East 342 394 20,200 1,560 Climbing Oakland Center
06:47PM 36.7072 -121.0033 87° East 360 414 22,300 1,920 Climbing Oakland Center
06:48PM 36.7114 -120.8789 88° East 362 417 24,200 1,860 Climbing Oakland Center
06:49PM 36.7208 -120.7558 84° East 359 413 26,200 1,920 Climbing Oakland Center
06:50PM 36.7611 -120.6453 66° East 353 406 28,200 1,680 Climbing Oakland Center
06:51PM 36.7975 -120.5311 68° East 352 405 29,700 1,680 Climbing Oakland Center
06:53PM 36.8417 -120.3981 67° East 353 406 31,700 1,500 Climbing Oakland Center
06:54PM 36.8814 -120.2797 67° East 365 420 32,800 600 Climbing Oakland Center
06:55PM 36.9239 -120.1511 68° East 382 440 33,000 300 Climbing Oakland Center
06:56PM 36.9686 -120.0150 68° East 414 476 33,500 600 Climbing Oakland Center
06:57PM 37.0136 -119.8769 68° East 426 490 34,300 1,020 Climbing Oakland Center
06:58PM 37.0572 -119.7417 68° East 422 486 35,700 1,020 Climbing Oakland Center
06:59PM 37.0986 -119.6128 68° East 405 466 36,500 600 Climbing Oakland Center
07:00PM 37.1589 -119.4886 59° Northeast 419 482 37,000 240 Climbing Oakland Center
07:01PM 37.2206 -119.3644 58° Northeast 420 483 37,000 60 Level Oakland Center
07:02PM 37.2994 -119.2083 58° Northeast 438 504 37,200 480 Climbing Oakland Center
07:03PM 37.3647 -119.0781 58° Northeast 442 509 38,100 900 Climbing Oakland Center
07:04PM 37.4256 -118.9528 59° Northeast 426 490 39,100 960 Climbing Oakland Center
07:05PM 37.4858 -118.8311 58° Northeast 415 478 40,100 1,200 Climbing Oakland Center
07:06PM 37.5506 -118.7000 58° Northeast 398 458 41,600 1,140 Climbing Oakland Center
07:07PM 37.6053 -118.5892 58° Northeast 377 434 42,500 660 Climbing Oakland Center
07:08PM 37.6586 -118.4800 58° Northeast 368 423 43,000 240 Climbing Oakland Center
07:09PM 37.7144 -118.3689 58° Northeast 373 429 43,000  Level Oakland Center
07:10PM 37.7703 -118.2531 59° Northeast 384 442 43,000  Level Oakland Center
07:11PM 37.8278 -118.1353 58° Northeast 392 451 43,000  Level Oakland Center
07:12PM 37.8869 -118.0131 58° Northeast 405 466 43,000  Level Oakland Center
07:13PM 37.9464 -117.8886 59° Northeast 409 471 43,000  Level Oakland Center
07:14PM 38.0064 -117.7639 59° Northeast 413 475 43,000  Level Oakland Center
07:15PM 38.0514 -117.5936 71° East 424 488 43,000 60 Level Oakland Center
07:16PM 38.0892 -117.4558 71° East 416 479 43,200 240 Climbing Oakland Center
07:17PM 38.1203 -117.3381 71° East 408 470 43,600 480 Climbing Oakland Center
07:18PM 38.1647 -117.1756 71° East 407 468 44,200 480 Climbing Oakland Center
07:19PM 38.2011 -117.0389 71° East 400 460 44,700 360 Climbing Oakland Center
07:20PM 38.2350 -116.9106 71° East 386 444 45,000 120 Climbing Oakland Center
07:21PM 38.2692 -116.7806 71° East 388 447 45,000  Level Oakland Center
07:22PM 38.3036 -116.6478 72° East 393 452 45,000  Level Oakland Center
07:23PM 38.3383 -116.5144 72° East 397 457 45,000  Level Oakland Center
07:24PM 38.3747 -116.3781 71° East 403 464 45,000  Level Oakland Center
07:25PM 38.4097 -116.2406 72° East 407 468 45,000  Level Oakland Center
07:26PM 38.4444 -116.1028 72° East 408 470 45,000  Level Oakland Center
07:28PM 38.4864 -115.9378 72° East 408 470 45,000  Level Salt Lake Center
07:29PM 38.5222 -115.8006 72° East 408 470 45,000  Level Salt Lake Center
07:30PM 38.5561 -115.6650 72° East 401 461 45,000  Level Salt Lake Center
07:31PM 38.5978 -115.5022 72° East 402 463 45,000  Level Salt Lake Center
07:32PM 38.6306 -115.3656 73° East 400 460 45,000  Level Salt Lake Center
07:33PM 38.6617 -115.2439 72° East 401 461 45,000  Level Salt Lake Center
07:34PM 38.7017 -115.0806 73° East 402 463 45,000  Level Salt Lake Center
07:35PM 38.7364 -114.9450 72° East 401 461 45,000  Level Salt Lake Center
07:36PM 38.7694 -114.8086 73° East 402 463 45,000  Level Salt Lake Center
07:37PM 38.8036 -114.6706 72° East 406 467 45,000  Level Salt Lake Center
07:38PM 38.8375 -114.5289 73° East 414 476 45,000  Level Salt Lake Center
07:39PM 38.8714 -114.3847 73° East 421 484 45,000  Level Salt Lake Center
07:40PM 38.9064 -114.2403 73° East 424 488 45,000  Level Salt Lake Center
07:41PM 38.9400 -114.0928 74° East 429 494 45,000  Level Salt Lake Center
07:42PM 38.9833 -113.9133 73° East 438 504 45,000  Level Salt Lake Center
07:43PM 39.0183 -113.7622 73° East 441 507 45,000  Level Salt Lake Center
07:44PM 39.0533 -113.6089 74° East 445 512 45,000  Level Salt Lake Center
07:45PM 39.0886 -113.4575 73° East 444 511 45,000  Level Salt Lake Center
07:46PM 39.1233 -113.3067 73° East 441 507 45,000  Level Salt Lake Center
07:47PM 39.1567 -113.1569 74° East 438 504 45,000  Level Salt Lake Center
07:48PM 39.1906 -113.0097 73° East 433 498 45,000  Level Salt Lake Center
07:49PM 39.2300 -112.8331 74° East 429 494 45,000  Level Salt Lake Center
07:50PM 39.2633 -112.6867 74° East 428 493 45,000  Level Salt Lake Center
07:51PM 39.2933 -112.5544 74° East 427 491 45,000  Level Salt Lake Center
07:52PM 39.3233 -112.4089 75° East 424 488 45,000  Level Salt Lake Center
07:53PM 39.3544 -112.2289 77° East 428 493 45,000  Level Salt Lake Center
07:54PM 39.3819 -112.0808 76° East 427 491 45,000  Level Salt Lake Center
07:55PM 39.4097 -111.9331 76° East 426 490 45,000  Level Salt Lake Center
07:56PM 39.4361 -111.7850 77° East 425 489 45,000  Level Salt Lake Center
07:57PM 39.4631 -111.6375 77° East 425 489 45,000  Level Salt Lake Center
07:58PM 39.4903 -111.4908 76° East 422 486 45,000  Level Salt Lake Center
07:59PM 39.5206 -111.3114 78° East 430 495 45,000  Level Salt Lake Center
08:00PM 39.5478 -111.1692 76° East 418 481 45,000  Level Salt Lake Center
08:02PM 39.5719 -111.0275 77° East 420 483 45,000  Level Salt Lake Center
08:03PM 39.6008 -110.8622 77° East 421 484 45,000  Level Salt Lake Center
08:04PM 39.6258 -110.7194 77° East 424 488 45,000  Level Salt Lake Center
08:05PM 39.6539 -110.5528 78° East 423 487 45,000  Level Salt Lake Center
08:06PM 39.6783 -110.4092 77° East 425 489 45,000  Level Salt Lake Center
08:07PM 39.7058 -110.2428 78° East 423 487 45,000  Level Salt Lake Center
08:08PM 39.7297 -110.0997 78° East 423 487 45,000  Level Salt Lake Center
08:09PM 39.7533 -109.9583 78° East 421 484 45,000  Level Salt Lake Center
08:10PM 39.7803 -109.7931 78° East 419 482 45,000  Level Salt Lake Center
08:11PM 39.8019 -109.6519 79° East 416 479 45,000  Level Salt Lake Center
08:12PM 39.8286 -109.4861 78° East 415 478 45,000  Level Denver Center
08:13PM 39.8511 -109.3439 78° East 416 479 45,000  Level Denver Center
08:14PM 39.8742 -109.2014 78° East 418 481 45,000  Level Denver Center
08:15PM 39.8997 -109.0361 79° East 416 479 45,000  Level Denver Center
08:16PM 39.9217 -108.8931 79° East 417 480 45,000  Level Denver Center
08:17PM 39.9486 -108.7258 78° East 418 481 45,000  Level Denver Center
08:18PM 39.9697 -108.5833 79° East 416 479 45,000  Level Denver Center
08:19PM 39.9947 -108.4172 79° East 416 479 45,000  Level Denver Center
08:20PM 40.0161 -108.2753 79° East 416 479 45,000  Level Denver Center
08:21PM 40.0361 -108.1331 80° East 415 478 45,000  Level Denver Center
08:22PM 40.0608 -107.9656 79° East 420 483 45,000  Level Denver Center
08:23PM 40.0633 -107.8194 89° East 428 493 45,000  Level Denver Center
08:24PM 40.0567 -107.6458 93° East 426 490 45,000  Level Denver Center
08:25PM 40.0500 -107.4969 93° East 428 493 45,000  Level Denver Center
08:26PM 40.0428 -107.3231 93° East 430 495 45,000  Level Denver Center
08:27PM 40.0364 -107.1739 93° East 431 496 45,000  Level Denver Center
08:28PM 40.0281 -107.0008 94° East 429 494 45,000  Level Denver Center
08:29PM 40.0208 -106.8522 94° East 429 494 45,000  Level Denver Center
08:30PM 40.0122 -106.6794 94° East 429 494 45,000  Level Denver Center
08:31PM 40.0064 -106.5306 93° East 430 495 45,000  Level Denver Center
08:32PM 39.9989 -106.3831 94° East 430 495 45,000  Level Denver Center
08:34PM 39.9886 -106.1967 94° East 428 493 45,000  Level Denver Center
08:35PM 39.9814 -106.0406 93° East 432 497 45,000  Level Denver Center
08:36PM 39.9725 -105.8847 94° East 432 497 45,000  Level Denver Center
08:37PM 39.9639 -105.7239 94° East 448 516 45,000  Level Denver Center
08:38PM 39.9553 -105.5675 94° East 436 502 45,000  Level Denver Center
08:39PM 39.9450 -105.4108 95° East 436 502 45,000  Level Denver Center
08:40PM 39.9356 -105.2533 94° East 436 502 45,000  Level Denver Center
08:41PM 39.9231 -105.0692 95° East 441 507 45,000  Level Denver Center
08:42PM 39.9133 -104.9108 95° East 439 505 45,000  Level Denver Center
08:43PM 39.9019 -104.7433 95° East 434 499 45,000  Level Denver Center
08:44PM 39.9031 -104.5778 89° East 447 514 45,000  Level Denver Center
08:45PM 39.9283 -104.4253 78° East 432 497 45,000  Level Denver Center
08:46PM 39.9511 -104.2800 78° East 424 488 45,000  Level Denver Center
08:47PM 39.9761 -104.1244 78° East 436 502 45,000  Level Denver Center
08:48PM 40.0022 -103.9708 77° East 434 499 45,000  Level Denver Center
08:49PM 40.0311 -103.7856 78° East 432 497 45,000  Level Denver Center
08:50PM 40.0561 -103.6322 78° East 431 496 45,000  Level Denver Center
08:51PM 40.0817 -103.4775 78° East 437 503 45,000  Level Denver Center
08:52PM 40.1056 -103.3217 79° East 439 505 45,000  Level Denver Center
08:53PM 40.1294 -103.1661 79° East 438 504 45,000  Level Denver Center
08:54PM 40.1533 -103.0108 79° East 437 503 45,000  Level Denver Center
08:55PM 40.1775 -102.8556 78° East 436 502 45,000  Level Denver Center
08:56PM 40.2058 -102.6678 79° East 439 505 45,000  Level Denver Center
08:57PM 40.2283 -102.5197 79° East 436 502 45,000  Level Denver Center
08:58PM 40.2531 -102.3456 79° East 436 502 45,000  Level Denver Center
08:59PM 40.2753 -102.1981 79° East 434 499 45,000  Level Denver Center
09:00PM 40.2989 -102.0472 78° East 440 506 45,000  Level Denver Center
09:01PM 40.3356 -101.8767 74° East 438 504 45,000  Level Denver Center
09:02PM 40.3633 -101.7275 76° East 439 505 45,000  Level Denver Center
09:03PM 40.3972 -101.5528 76° East 443 510 45,000  Level Denver Center
09:04PM 40.4247 -101.4053 76° East 439 505 45,000  Level Denver Center
09:05PM 40.4572 -101.2308 76° East 441 507 45,000  Level Denver Center
09:07PM 40.4847 -101.0819 76° East 441 507 45,000  Level Denver Center
09:08PM 40.5175 -100.9075 76° East 443 510 45,000  Level Denver Center
09:09PM 40.5444 -100.7575 77° East 444 511 45,000  Level Denver Center
09:10PM 40.5756 -100.5839 77° East 442 509 45,000  Level Denver Center
09:11PM 40.6031 -100.4350 76° East 442 509 45,000  Level Denver Center
09:12PM 40.6342 -100.2592 77° East 445 512 45,000  Level Denver Center
09:13PM 40.6603 -100.1086 77° East 444 511 45,000  Level Denver Center
09:14PM 40.6919 -99.9314 77° East 447 514 45,000  Level Denver Center
09:15PM 40.7161 -99.7908 77° East 449 517 45,000  Level Denver Center
09:16PM 40.7486 -99.5997 77° East 447 514 45,000  Level Denver Center
09:17PM 40.7764 -99.4389 77° East 450 518 45,000  Level Denver Center
09:18PM 40.8042 -99.2783 77° East 451 519 45,000  Level Denver Center
09:19PM 40.8306 -99.1175 78° East 451 519 45,000  Level Minneapolis Center
09:20PM 40.8581 -98.9506 78° East 454 522 45,000  Level Minneapolis Center
09:21PM 40.8844 -98.7867 78° East 456 525 45,000  Level Minneapolis Center
09:22PM 40.9117 -98.6219 78° East 458 527 45,000  Level Minneapolis Center
09:23PM 40.9383 -98.4569 78° East 460 529 45,000  Level Minneapolis Center
09:24PM 40.9689 -98.2697 78° East 462 532 45,000  Level Minneapolis Center
09:25PM 40.9958 -98.1044 78° East 462 532 45,000  Level Minneapolis Center
09:26PM 41.0222 -97.9375 78° East 465 535 45,000  Level Minneapolis Center
09:27PM 41.0481 -97.7697 78° East 465 535 45,000  Level Minneapolis Center
09:28PM 41.0744 -97.6014 78° East 466 536 45,000  Level Minneapolis Center
09:29PM 41.0994 -97.4325 79° East 468 539 45,000  Level Minneapolis Center
09:30PM 41.1286 -97.2511 78° East 466 536 45,000  Level Minneapolis Center
09:31PM 41.1539 -97.0800 79° East 472 543 45,000  Level Minneapolis Center
09:32PM 41.1794 -96.9089 79° East 473 544 45,000  Level Minneapolis Center
09:33PM 41.2056 -96.7375 78° East 474 545 45,000  Level Minneapolis Center
09:34PM 41.2353 -96.5311 79° East 475 547 45,000  Level Minneapolis Center
09:35PM 41.2608 -96.3589 79° East 475 547 45,000  Level Minneapolis Center
09:36PM 41.2822 -96.1986 80° East 476 548 45,000  Level Minneapolis Center
09:37PM 41.3061 -96.0261 79° East 474 545 45,000  Level Minneapolis Center
09:38PM 41.3308 -95.8525 79° East 478 550 45,000  Level Minneapolis Center
09:39PM 41.3589 -95.6428 80° East 479 551 45,000  Level Minneapolis Center
09:40PM 41.3817 -95.4722 80° East 479 551 45,000  Level Minneapolis Center
09:41PM 41.4047 -95.2969 80° East 482 555 45,000  Level Minneapolis Center
09:42PM 41.4292 -95.1219 79° East 483 556 45,000  Level Minneapolis Center
09:43PM 41.4522 -94.9472 80° East 481 554 45,000  Level Minneapolis Center
09:44PM 41.4728 -94.7722 81° East 479 551 45,000  Level Minneapolis Center
09:46PM 41.4964 -94.5964 80° East 480 552 45,000  Level Minneapolis Center
09:47PM 41.5225 -94.4203 79° East 483 556 45,000  Level Minneapolis Center
09:48PM 41.5450 -94.2075 82° East 483 556 45,000  Level Minneapolis Center
09:49PM 41.5636 -94.0508 81° East 482 555 45,000  Level Minneapolis Center
09:50PM 41.5839 -93.8758 81° East 481 554 45,000  Level Minneapolis Center
09:51PM 41.6058 -93.6978 81° East 485 558 45,000  Level Minneapolis Center
09:52PM 41.6275 -93.5197 81° East 487 560 45,000  Level Minneapolis Center
09:53PM 41.6536 -93.3039 81° East 491 565 45,000  Level Minneapolis Center
09:54PM 41.6742 -93.1267 81° East 488 562 45,000  Level Minneapolis Center
09:55PM 41.6936 -92.9486 82° East 486 559 45,000  Level Minneapolis Center
09:56PM 41.7119 -92.7792 82° East 486 559 45,000 -360 Level Minneapolis Center
09:57PM 41.7331 -92.6031 81° East 485 558 44,300 -840 Descending Minneapolis Center
09:58PM 41.7533 -92.4172 82° East 497 572 43,300 -1,500 Descending Minneapolis Center
09:59PM 41.7761 -92.1939 82° East 508 585 41,300 -2,100 Descending Minneapolis Center
10:00PM 41.7953 -92.0081 82° East 508 585 38,900 -2,460 Descending Minneapolis Center
10:01PM 41.8156 -91.8189 82° East 515 593 36,200 -2,640 Descending Minneapolis Center
10:02PM 41.8414 -91.5525 82° East 514 592 32,700 -2,220 Descending Chicago Center
10:03PM 41.8600 -91.3614 82° East 520 598 31,000 -1,260 Descending Chicago Center
10:04PM 41.8783 -91.1717 83° East 522 601 30,200 -1,440 Descending Chicago Center
10:05PM 41.9011 -90.9397 82° East 527 606 28,100 -2,520 Descending Chicago Center
10:06PM 41.9172 -90.7514 83° East 517 595 25,100 -2,100 Descending Chicago Center
10:07PM 41.9358 -90.5647 82° East 512 589 23,900 -1,380 Descending Chicago Center
10:08PM 41.9731 -90.3922 74° East 489 563 22,300 -1,680 Descending Chicago Center
10:09PM 42.0094 -90.2247 74° East 478 550 20,500 -1,980 Descending Chicago Center
10:10PM 42.0428 -90.0675 74° East 453 521 18,300 -2,400 Descending Chicago Center
10:11PM 42.0792 -89.8931 74° East 417 480 15,700 -2,400 Descending Chicago Center
10:12PM 42.1081 -89.7578 74° East 384 442 13,500 -2,220 Descending Chicago Center
10:13PM 42.1367 -89.6258 74° East 373 429 11,300 -1,740 Descending Chicago Center
10:15PM 42.1608 -89.5033 75° East 346 398 10,000 -660 Descending Chicago Center
10:16PM 42.1869 -89.3806 74° East 343 395 10,000  Level Chicago Center
10:17PM 42.2136 -89.2550 74° East 348 400 10,000  Level Chicago Center
10:18PM 42.2394 -89.1317 74° East 345 397 10,000  Level Chicago Center
10:19PM 42.2633 -89.0194 74° East 318 366 10,000 -60 Level Chicago Center
10:20PM 42.2864 -88.9158 73° East 295 339 9,900 -1,080 Descending Chicago Center
10:21PM 42.3114 -88.7978 74° East 298 343 7,900 -2,100 Descending Chicago Center
10:22PM 42.3342 -88.6867 74° East 285 328 5,700 -1,440 Descending Chicago Center
10:23PM 42.3550 -88.5897 74° East 275 316 5,000 -360 Descending Chicago Center
10:24PM 42.3689 -88.4903 79° East 275 316 5,000 -540 Level Chicago Center
10:25PM 42.3561 -88.3928 100° East 265 305 4,000 -540 Descending Chicago Center
10:26PM 42.3450 -88.2925 98° East 270 311 4,000 -60 Level Chicago Center
10:27PM 42.3361 -88.2103 98° East 244 281 3,900 -540 Descending Chicago Center
10:28PM 42.3258 -88.1231 99° East 224 258 3,000 -480 Descending Chicago Center
10:29PM 42.3131 -88.0503 103° East 210 242 3,000  Level Chicago Center
10:30PM 42.2781 -87.9886 127° Southeast 205 236 3,000 -60 Level Chicago Center
10:31PM 42.2283 -87.9650 161° South 199 229 2,900 -540 Descending Chicago Center
10:32PM 42.1842 -87.9400 157° South 185 213 2,000 -600 Descending Chicago Center
10:33PM 42.1411 -87.9200 161° South 174 200 1,700 -300 Descending Chicago Center
10:35PM 42.1000 -87.9000 151° Southeast  Level FlightAware Approximate
10:42PM 42.0173 -88.9818 151° Southeast  Level Estimated
10:43PM 42.0047 -89.1361 151° Southeast  Level Estimated
10:44PM 41.9919 -89.2903 151° Southeast  Level Estimated
10:45PM 41.9788 -89.4445 151° Southeast  Level Estimated
10:46PM 41.9655 -89.5986 151° Southeast  Level Estimated
10:47PM 41.9521 -89.7526 151° Southeast  Level Estimated
10:48PM 41.9384 -89.9066 151° Southeast  Level Estimated
10:49PM 41.9245 -90.0605 151° Southeast  Level Estimated
10:50PM 41.9105 -90.2144 151° Southeast  Level Estimated
10:51PM 41.8962 -90.3682 151° Southeast  Level Estimated
10:52PM 41.8817 -90.5219 151° Southeast  Level Estimated
10:53PM 41.8670 -90.6755 151° Southeast  Level Estimated
10:54PM 41.8521 -90.8291 151° Southeast  Level Estimated
10:55PM 41.8370 -90.9826 151° Southeast  Level Estimated
10:56PM 41.8217 -91.1360 151° Southeast  Level Estimated
10:57PM 41.8062 -91.2894 151° Southeast  Level Estimated
10:58PM 41.7905 -91.4426 151° Southeast  Level Estimated
10:59PM 41.7746 -91.5958 151° Southeast  Level Estimated
11:00PM 41.7584 -91.7490 151° Southeast  Level Estimated
11:01PM 41.7421 -91.9020 151° Southeast  Level Estimated
11:02PM 41.7256 -92.0550 151° Southeast  Level Estimated
11:03PM 41.7088 -92.2079 151° Southeast  Level Estimated
11:04PM 41.6919 -92.3607 151° Southeast  Level Estimated
11:05PM 41.6748 -92.5134 151° Southeast  Level Estimated
11:06PM 41.6574 -92.6661 151° Southeast  Level Estimated
11:07PM 41.6399 -92.8186 151° Southeast  Level Estimated
11:08PM 41.6222 -92.9711 151° Southeast  Level Estimated
11:09PM 41.6042 -93.1235 151° Southeast  Level Estimated
11:10PM 41.5861 -93.2758 151° Southeast  Level Estimated
11:11PM 41.5677 -93.4280 151° Southeast  Level Estimated
11:12PM 41.5492 -93.5802 151° Southeast  Level Estimated
11:13PM 41.5304 -93.7322 151° Southeast  Level Estimated
11:14PM 41.5115 -93.8842 151° Southeast  Level Estimated
11:15PM 41.4923 -94.0361 151° Southeast  Level Estimated
11:16PM 41.4730 -94.1879 151° Southeast  Level Estimated
11:17PM 41.4534 -94.3395 151° Southeast  Level Estimated
11:18PM 41.4337 -94.4911 151° Southeast  Level Estimated
11:19PM 41.4137 -94.6426 151° Southeast  Level Estimated
11:20PM 41.3936 -94.7941 151° Southeast  Level Estimated
11:21PM 41.3733 -94.9454 151° Southeast  Level Estimated
11:22PM 41.3527 -95.0966 151° Southeast  Level Estimated
11:23PM 41.3320 -95.2477 151° Southeast  Level Estimated
11:24PM 41.3111 -95.3988 151° Southeast  Level Estimated
11:25PM 41.2899 -95.5497 151° Southeast  Level Estimated
11:26PM 41.2686 -95.7005 151° Southeast  Level Estimated
11:27PM 41.2471 -95.8513 151° Southeast  Level Estimated
11:28PM 41.2253 -96.0019 151° Southeast  Level Estimated
11:29PM 41.2034 -96.1525 151° Southeast  Level Estimated
11:30PM 41.1813 -96.3029 151° Southeast  Level Estimated
11:31PM 41.1590 -96.4532 151° Southeast  Level Estimated
11:32PM 41.1365 -96.6034 151° Southeast  Level Estimated
11:33PM 41.1138 -96.7536 151° Southeast  Level Estimated
11:34PM 41.0909 -96.9036 151° Southeast  Level Estimated
11:35PM 41.0678 -97.0535 151° Southeast  Level Estimated
11:36PM 41.0445 -97.2033 151° Southeast  Level Estimated
11:37PM 41.0211 -97.3530 151° Southeast  Level Estimated
11:38PM 40.9974 -97.5026 151° Southeast  Level Estimated
11:39PM 40.9735 -97.6521 151° Southeast  Level Estimated
11:40PM 40.9495 -97.8015 151° Southeast  Level Estimated
11:41PM 40.9252 -97.9508 151° Southeast  Level Estimated
11:42PM 40.9008 -98.0999 151° Southeast  Level Estimated
11:43PM 40.8761 -98.2490 151° Southeast  Level Estimated
11:44PM 40.8513 -98.3979 151° Southeast  Level Estimated
11:45PM 40.8263 -98.5468 151° Southeast  Level Estimated
11:46PM 40.8011 -98.6955 151° Southeast  Level Estimated
11:47PM 40.7757 -98.8441 151° Southeast  Level Estimated
11:48PM 40.7501 -98.9926 151° Southeast  Level Estimated
11:49PM 40.7243 -99.1409 151° Southeast  Level Estimated
11:50PM 40.6983 -99.2892 151° Southeast  Level Estimated
11:51PM 40.6722 -99.4373 151° Southeast  Level Estimated
11:52PM 40.6458 -99.5854 151° Southeast  Level Estimated
11:53PM 40.6193 -99.7333 151° Southeast  Level Estimated
11:54PM 40.5926 -99.8811 151° Southeast  Level Estimated
11:55PM 40.5657 -100.0287 151° Southeast  Level Estimated
11:56PM 40.5386 -100.1763 151° Southeast  Level Estimated
11:57PM 40.5113 -100.3237 151° Southeast  Level Estimated
11:58PM 40.4838 -100.4710 151° Southeast  Level Estimated
11:59PM 40.4561 -100.6182 151° Southeast  Level Estimated
12:00AM 40.4283 -100.7653 151° Southeast  Level Estimated
12:01AM 40.4002 -100.9122 151° Southeast  Level Estimated
12:02AM 40.3720 -101.0591 151° Southeast  Level Estimated
12:03AM 40.3436 -101.2058 151° Southeast  Level Estimated
12:04AM 40.3150 -101.3523 151° Southeast  Level Estimated
12:05AM 40.2862 -101.4988 151° Southeast  Level Estimated
12:06AM 40.2573 -101.6451 151° Southeast  Level Estimated
12:07AM 40.2281 -101.7913 151° Southeast  Level Estimated
12:08AM 40.1988 -101.9374 151° Southeast  Level Estimated
12:09AM 40.1693 -102.0834 151° Southeast  Level Estimated
12:10AM 40.1396 -102.2292 151° Southeast  Level Estimated
12:11AM 40.1097 -102.3749 151° Southeast  Level Estimated
12:12AM 40.0797 -102.5204 151° Southeast  Level Estimated
12:13AM 40.0494 -102.6659 151° Southeast  Level Estimated
12:14AM 40.0190 -102.8112 151° Southeast  Level Estimated
12:15AM 39.9884 -102.9564 151° Southeast  Level Estimated
12:16AM 39.9576 -103.1014 151° Southeast  Level Estimated
12:17AM 39.9266 -103.2464 151° Southeast  Level Estimated
12:18AM 39.8955 -103.3911 151° Southeast  Level Estimated
12:19AM 39.8641 -103.5358 151° Southeast  Level Estimated
12:20AM 39.8326 -103.6803 151° Southeast  Level Estimated
12:21AM 39.8009 -103.8247 151° Southeast  Level Estimated
12:22AM 39.7691 -103.9690 151° Southeast  Level Estimated
12:23AM 39.7370 -104.1131 151° Southeast  Level Estimated
12:24AM 39.7048 -104.2571 151° Southeast  Level Estimated
12:25AM 39.6724 -104.4009 151° Southeast  Level Estimated
12:26AM 39.6399 -104.5446 151° Southeast  Level Estimated